createdAt,value
2022-10-30T00:00:44.471Z,87.25
2022-10-30T00:03:13.057Z,86.46
2022-10-30T00:05:48.611Z,85.48
2022-10-30T00:08:17.549Z,84.89
2022-10-30T00:10:44.774Z,85.41
2022-10-30T00:13:11.412Z,84.86
2022-10-30T00:15:37.900Z,85.01
2022-10-30T00:18:04.818Z,83.42
2022-10-30T00:20:31.541Z,83.58
2022-10-30T00:22:58.164Z,84.52
2022-10-30T00:25:24.733Z,83.78
2022-10-30T00:27:51.064Z,83.28
2022-10-30T00:30:18.799Z,83.21
2022-10-30T00:32:45.252Z,83.30
2022-10-30T00:35:11.642Z,82.89
2022-10-30T00:37:38.045Z,83.39
2022-10-30T00:40:05.335Z,83.75
2022-10-30T00:42:32.219Z,83.54
2022-10-30T00:44:58.569Z,82.82
2022-10-30T00:47:34.232Z,82.82
2022-10-30T00:50:03.625Z,82.78
2022-10-30T00:52:33.637Z,81.37
2022-10-30T00:55:08.609Z,82.38
2022-10-30T00:57:36.836Z,82.25
2022-10-30T01:00:06.083Z,83.25
2022-10-30T01:02:32.952Z,83.16
2022-10-30T01:05:00.610Z,82.29
2022-10-30T01:07:27.039Z,83.97
2022-10-30T01:09:53.440Z,83.39
2022-10-30T01:12:19.769Z,82.73
2022-10-30T01:14:51.567Z,83.31
2022-10-30T01:17:24.312Z,83.70
2022-10-30T01:20:26.089Z,83.04
2022-10-30T01:23:19.962Z,83.63
2022-10-30T01:25:52.228Z,85.19
2022-10-30T01:28:35.948Z,85.62
2022-10-30T01:31:17.930Z,85.41
2022-10-30T01:33:53.164Z,86.72
2022-10-30T01:36:33.479Z,85.96
2022-10-30T01:39:06.531Z,85.49
2022-10-30T01:41:32.991Z,84.84
2022-10-30T01:44:03.381Z,85.09
2022-10-30T01:46:42.004Z,84.47
2022-10-30T01:49:18.874Z,83.77
2022-10-30T01:51:54.119Z,83.58
2022-10-30T01:54:38.015Z,84.13
2022-10-30T01:57:14.632Z,83.37
2022-10-30T01:59:58.523Z,82.46
2022-10-30T02:02:25.090Z,82.66
2022-10-30T02:04:51.647Z,83.21
2022-10-30T02:07:18.154Z,81.81
2022-10-30T02:09:44.515Z,81.80
2022-10-30T02:12:11.287Z,81.93
2022-10-30T02:14:43.366Z,80.46
2022-10-30T02:17:11.657Z,81.87
2022-10-30T02:19:38.522Z,81.81
2022-10-30T02:22:05.072Z,81.15
2022-10-30T02:24:32.123Z,81.03
2022-10-30T02:26:58.698Z,80.63
2022-10-30T02:29:25.109Z,80.15
2022-10-30T02:31:51.461Z,79.68
2022-10-30T02:34:17.872Z,80.46
2022-10-30T02:36:44.168Z,80.26
2022-10-30T02:39:10.492Z,79.89
2022-10-30T02:41:37.017Z,79.76
2022-10-30T02:44:04.336Z,79.27
2022-10-30T02:46:30.670Z,79.64
2022-10-30T02:48:56.984Z,79.15
2022-10-30T02:51:23.303Z,79.09
2022-10-30T02:53:50.239Z,79.11
2022-10-30T02:56:16.759Z,79.36
2022-10-30T02:58:43.123Z,79.92
2022-10-30T03:01:14.687Z,79.06
2022-10-30T03:03:41.924Z,79.11
2022-10-30T03:06:10.653Z,79.23
2022-10-30T03:08:37.318Z,79.76
2022-10-30T03:11:05.156Z,79.52
2022-10-30T03:13:33.024Z,80.42
2022-10-30T03:16:14.005Z,80.90
2022-10-30T03:18:41.183Z,80.00
2022-10-30T03:21:09.667Z,78.61
2022-10-30T03:23:36.337Z,79.83
2022-10-30T03:26:03.962Z,80.02
2022-10-30T03:28:32.025Z,80.34
2022-10-30T03:31:03.943Z,81.45
2022-10-30T03:33:30.261Z,81.28
2022-10-30T03:35:56.999Z,80.69
2022-10-30T03:38:23.435Z,80.83
2022-10-30T03:40:50.326Z,81.05
2022-10-30T03:43:17.117Z,81.28
2022-10-30T03:45:51.315Z,80.86
2022-10-30T03:48:19.156Z,81.87
2022-10-30T03:50:46.073Z,82.09
2022-10-30T03:53:13.386Z,83.35
2022-10-30T03:55:40.535Z,84.68
2022-10-30T03:58:07.432Z,85.47
2022-10-30T04:00:35.394Z,85.51
2022-10-30T04:03:02.523Z,86.32
2022-10-30T04:05:29.364Z,88.06
2022-10-30T04:08:01.467Z,89.14
2022-10-30T04:10:28.065Z,89.19
2022-10-30T04:13:06.277Z,89.16
2022-10-30T04:15:33.088Z,88.21
2022-10-30T04:18:00.192Z,86.07
2022-10-30T04:20:28.039Z,84.98
2022-10-30T04:23:03.108Z,84.57
2022-10-30T04:25:29.805Z,83.79
2022-10-30T04:27:56.975Z,83.94
2022-10-30T04:30:25.104Z,85.06
2022-10-30T04:32:53.670Z,86.37
2022-10-30T04:35:22.224Z,86.76
2022-10-30T04:37:57.406Z,86.49
2022-10-30T04:40:25.604Z,85.10
2022-10-30T04:42:52.520Z,84.94
2022-10-30T04:45:19.335Z,85.19
2022-10-30T04:47:45.954Z,84.20
2022-10-30T04:50:12.989Z,84.33
2022-10-30T04:52:39.428Z,82.94
2022-10-30T04:55:06.943Z,83.73
2022-10-30T04:57:34.294Z,83.98
2022-10-30T05:00:00.677Z,84.67
2022-10-30T05:02:27.153Z,84.64
2022-10-30T05:04:53.579Z,83.93
2022-10-30T05:07:20.640Z,85.06
2022-10-30T05:09:46.936Z,86.20
2022-10-30T05:12:13.321Z,87.39
2022-10-30T05:14:39.628Z,87.78
2022-10-30T05:17:05.929Z,88.23
2022-10-30T05:19:32.231Z,88.80
2022-10-30T05:21:58.563Z,88.45
2022-10-30T05:24:24.854Z,89.18
2022-10-30T05:26:51.174Z,89.33
2022-10-30T05:29:17.494Z,88.89
2022-10-30T05:31:43.863Z,88.40
2022-10-30T05:34:10.185Z,88.56
2022-10-30T05:36:36.500Z,89.82
2022-10-30T05:39:03.043Z,89.84
2022-10-30T05:41:30.054Z,89.77
2022-10-30T05:43:56.727Z,89.64
2022-10-30T05:46:23.066Z,89.28
2022-10-30T05:48:49.402Z,89.88
2022-10-30T05:51:15.734Z,89.80
2022-10-30T05:53:42.030Z,88.29
2022-10-30T05:56:08.435Z,88.35
2022-10-30T05:58:34.773Z,87.86
2022-10-30T06:01:05.496Z,87.03
2022-10-30T06:03:31.798Z,86.76
2022-10-30T06:05:58.135Z,86.38
2022-10-30T06:08:24.485Z,88.30
2022-10-30T06:10:50.810Z,88.16
2022-10-30T06:13:17.302Z,87.57
2022-10-30T06:15:43.598Z,88.21
2022-10-30T06:18:09.901Z,87.92
2022-10-30T06:20:36.231Z,88.38
2022-10-30T06:23:05.005Z,88.54
2022-10-30T06:25:39.435Z,89.24
2022-10-30T06:28:07.519Z,89.57
2022-10-30T06:30:33.945Z,90.05
2022-10-30T06:33:02.167Z,88.84
2022-10-30T06:35:29.331Z,89.19
2022-10-30T06:37:56.568Z,87.92
2022-10-30T06:40:23.562Z,87.80
2022-10-30T06:42:51.843Z,87.97
2022-10-30T06:45:20.024Z,87.06
2022-10-30T06:47:47.189Z,88.27
2022-10-30T06:50:16.328Z,86.90
2022-10-30T06:52:42.722Z,87.97
2022-10-30T06:55:09.918Z,87.07
2022-10-30T06:57:36.449Z,87.33
2022-10-30T07:00:04.340Z,86.12
2022-10-30T07:02:30.756Z,85.85
2022-10-30T07:04:57.140Z,85.39
2022-10-30T07:07:23.448Z,85.13
2022-10-30T07:09:49.895Z,85.97
2022-10-30T07:12:16.278Z,85.92
2022-10-30T07:14:42.643Z,86.65
2022-10-30T07:17:09.429Z,85.93
2022-10-30T07:19:35.842Z,85.69
2022-10-30T07:22:02.424Z,85.35
2022-10-30T07:24:28.915Z,84.82
2022-10-30T07:26:56.438Z,84.60
2022-10-30T07:29:22.763Z,86.10
2022-10-30T07:32:01.521Z,87.28
2022-10-30T07:34:28.985Z,86.74
2022-10-30T07:36:55.297Z,87.87
2022-10-30T07:39:21.624Z,88.09
2022-10-30T07:41:50.389Z,89.34
2022-10-30T07:44:16.868Z,88.93
2022-10-30T07:46:43.230Z,89.23
2022-10-30T07:49:09.556Z,90.05
2022-10-30T07:51:35.863Z,89.96
2022-10-30T07:54:02.219Z,89.55
2022-10-30T07:56:28.548Z,90.51
2022-10-30T07:58:54.925Z,90.76
2022-10-30T08:01:21.290Z,91.10
2022-10-30T08:03:47.738Z,91.06
2022-10-30T08:06:14.063Z,92.31
2022-10-30T08:08:43.201Z,93.11
2022-10-30T08:11:10.054Z,93.73
2022-10-30T08:13:36.359Z,92.94
2022-10-30T08:16:02.696Z,93.08
2022-10-30T08:18:29.052Z,92.32
2022-10-30T08:20:55.400Z,92.62
2022-10-30T08:23:21.948Z,94.01
2022-10-30T08:25:48.525Z,94.11
2022-10-30T08:28:14.833Z,94.60
2022-10-30T08:30:41.489Z,92.86
2022-10-30T08:33:13.468Z,93.56
2022-10-30T08:35:47.022Z,93.40
2022-10-30T08:38:13.359Z,94.80
2022-10-30T08:40:39.669Z,92.83
2022-10-30T08:43:05.974Z,93.57
2022-10-30T08:45:32.324Z,94.75
2022-10-30T08:48:01.042Z,94.21
2022-10-30T08:50:27.731Z,93.78
2022-10-30T08:52:54.860Z,94.08
2022-10-30T08:55:21.659Z,94.58
2022-10-30T08:57:48.031Z,94.07
2022-10-30T09:00:14.583Z,95.07
2022-10-30T09:02:41.068Z,94.11
2022-10-30T09:05:09.102Z,95.02
2022-10-30T09:07:36.229Z,94.65
2022-10-30T09:10:03.503Z,94.88
2022-10-30T09:12:29.852Z,95.93
2022-10-30T09:14:56.263Z,95.58
2022-10-30T09:17:22.947Z,94.04
2022-10-30T09:19:49.397Z,93.75
2022-10-30T09:22:15.814Z,94.20
2022-10-30T09:24:42.150Z,94.35
2022-10-30T09:27:08.500Z,94.39
2022-10-30T09:29:36.764Z,93.22
2022-10-30T09:32:05.049Z,94.20
2022-10-30T09:34:31.458Z,95.15
2022-10-30T09:36:57.825Z,95.24
2022-10-30T09:39:25.274Z,95.16
2022-10-30T09:42:03.806Z,95.36
2022-10-30T09:45:23.344Z,93.29
2022-10-30T09:48:05.463Z,93.41
2022-10-30T09:50:39.934Z,93.81
2022-10-30T09:53:12.358Z,93.04
2022-10-30T09:56:03.070Z,93.73
2022-10-30T09:59:03.505Z,93.37
2022-10-30T10:01:49.934Z,93.51
2022-10-30T10:04:37.792Z,94.36
2022-10-30T10:07:29.896Z,93.41
2022-10-30T10:10:00.131Z,93.52
2022-10-30T10:12:34.273Z,93.31
2022-10-30T10:15:07.706Z,92.57
2022-10-30T10:17:39.140Z,92.39
2022-10-30T10:20:35.023Z,93.09
2022-10-30T10:23:12.049Z,93.91
2022-10-30T10:25:41.442Z,91.86
2022-10-30T10:28:32.837Z,92.77
2022-10-30T10:31:24.071Z,91.98
2022-10-30T10:34:31.634Z,92.47
2022-10-30T10:37:20.324Z,92.56
2022-10-30T10:40:14.692Z,92.90
2022-10-30T10:42:59.877Z,91.04
2022-10-30T10:45:57.249Z,90.13
2022-10-30T10:49:04.753Z,89.95
2022-10-30T10:51:39.057Z,89.82
2022-10-30T10:54:13.958Z,89.23
2022-10-30T10:56:44.954Z,89.81
2022-10-30T10:59:19.073Z,89.02
2022-10-30T11:02:16.425Z,88.36
2022-10-30T11:04:49.816Z,87.22
2022-10-30T11:07:22.358Z,86.91
2022-10-30T11:09:54.031Z,87.86
2022-10-30T11:12:25.366Z,87.16
2022-10-30T11:14:51.708Z,86.32
2022-10-30T11:17:35.203Z,86.33
2022-10-30T11:20:14.189Z,85.35
2022-10-30T11:22:44.499Z,85.80
2022-10-30T11:25:28.598Z,85.39
2022-10-30T11:28:00.149Z,85.84
2022-10-30T11:30:28.818Z,85.00
2022-10-30T11:32:57.242Z,85.32
2022-10-30T11:35:25.082Z,84.22
2022-10-30T11:38:11.103Z,84.33
2022-10-30T11:40:37.550Z,83.92
2022-10-30T11:43:05.491Z,84.00
2022-10-30T11:45:41.483Z,84.32
2022-10-30T11:48:27.530Z,83.62
2022-10-30T11:50:59.530Z,83.33
2022-10-30T11:53:32.713Z,82.77
2022-10-30T11:55:59.205Z,83.34
2022-10-30T11:58:32.783Z,82.66
2022-10-30T12:01:23.711Z,82.17
2022-10-30T12:03:50.641Z,83.15
2022-10-30T12:06:20.545Z,82.41
2022-10-30T12:09:11.296Z,82.03
2022-10-30T12:11:39.838Z,81.87
2022-10-30T12:14:06.496Z,81.98
2022-10-30T12:16:33.664Z,82.14
2022-10-30T12:19:06.477Z,82.26
2022-10-30T12:21:43.540Z,81.64
2022-10-30T12:24:38.685Z,81.99
2022-10-30T12:27:16.836Z,81.49
2022-10-30T12:30:08.776Z,81.20
2022-10-30T12:32:49.374Z,82.46
2022-10-30T12:35:43.131Z,81.39
2022-10-30T12:38:27.787Z,81.36
2022-10-30T12:41:18.209Z,81.83
2022-10-30T12:43:52.400Z,81.32
2022-10-30T12:46:33.151Z,81.65
2022-10-30T12:49:26.691Z,81.52
2022-10-30T12:52:00.722Z,81.95
2022-10-30T12:54:51.257Z,80.84
2022-10-30T12:57:28.773Z,81.19
2022-10-30T13:00:01.284Z,80.78
2022-10-30T13:02:49.431Z,81.44
2022-10-30T13:05:25.982Z,80.22
2022-10-30T13:08:04.713Z,79.61
2022-10-30T13:10:37.878Z,79.15
2022-10-30T13:13:20.335Z,79.99
2022-10-30T13:15:58.451Z,78.57
2022-10-30T13:18:27.009Z,78.11
2022-10-30T13:21:03.131Z,77.59
2022-10-30T13:23:51.688Z,78.32
2022-10-30T13:26:53.304Z,78.47
2022-10-30T13:29:31.719Z,78.96
2022-10-30T13:32:40.847Z,79.62
2022-10-30T13:35:41.167Z,80.12
2022-10-30T13:38:49.061Z,79.26
2022-10-30T13:41:27.668Z,79.48
2022-10-30T13:44:04.825Z,79.73
2022-10-30T13:46:46.196Z,79.90
2022-10-30T13:49:15.643Z,79.98
2022-10-30T13:51:54.132Z,81.07
2022-10-30T13:54:32.032Z,81.71
2022-10-30T13:57:08.871Z,82.23
2022-10-30T13:59:49.790Z,82.51
2022-10-30T14:02:43.245Z,82.67
2022-10-30T14:05:35.348Z,83.48
2022-10-30T14:08:21.187Z,83.83
2022-10-30T14:10:57.691Z,84.07
2022-10-30T14:13:29.306Z,84.25
2022-10-30T14:16:05.041Z,84.66
2022-10-30T14:18:58.809Z,84.61
2022-10-30T14:21:57.061Z,84.89
2022-10-30T14:24:32.306Z,85.28
2022-10-30T14:27:04.789Z,85.07
2022-10-30T14:29:37.298Z,85.55
2022-10-30T14:32:15.878Z,86.13
2022-10-30T14:34:42.628Z,86.11
2022-10-30T14:37:09.991Z,86.04
2022-10-30T14:39:47.757Z,85.92
2022-10-30T14:42:41.324Z,86.86
2022-10-30T14:45:24.601Z,87.26
2022-10-30T14:48:02.768Z,86.23
2022-10-30T14:50:56.008Z,87.09
2022-10-30T14:53:42.867Z,87.35
2022-10-30T14:59:12.494Z,87.07
2022-10-30T15:02:11.788Z,87.91
2022-10-30T15:04:53.206Z,86.91
2022-10-30T15:07:34.188Z,88.01
2022-10-30T15:10:18.580Z,88.49
2022-10-30T15:12:54.773Z,87.94
2022-10-30T15:15:23.873Z,88.61
2022-10-30T15:17:56.795Z,89.23
2022-10-30T15:20:26.665Z,90.30
2022-10-30T15:22:57.327Z,89.52
2022-10-30T15:25:26.756Z,90.17
2022-10-30T15:27:56.756Z,89.67
2022-10-30T15:30:26.415Z,90.69
2022-10-30T15:32:53.475Z,91.07
2022-10-30T15:35:27.248Z,90.41
2022-10-30T15:38:06.355Z,89.90
2022-10-30T15:40:38.303Z,89.81
2022-10-30T15:43:07.470Z,91.03
2022-10-30T15:45:36.148Z,90.06
2022-10-30T15:48:20.254Z,90.77
2022-10-30T15:50:56.000Z,90.89
2022-10-30T15:53:27.831Z,91.67
2022-10-30T15:55:57.709Z,91.77
2022-10-30T15:58:25.164Z,89.90
2022-10-30T16:01:00.243Z,91.76
2022-10-30T16:03:27.467Z,90.50
2022-10-30T16:06:17.812Z,90.16
2022-10-30T16:08:46.364Z,90.33
2022-10-30T16:11:13.413Z,90.65
2022-10-30T16:13:40.218Z,89.82
2022-10-30T16:16:11.946Z,89.70
2022-10-30T16:18:39.060Z,88.80
2022-10-30T16:21:07.374Z,88.52
2022-10-30T16:24:04.599Z,86.80
2022-10-30T16:26:36.480Z,86.87
2022-10-30T19:19:57.537Z,95.45
2022-10-30T19:22:23.848Z,91.00
2022-10-30T19:24:50.324Z,88.93
2022-10-30T19:27:16.777Z,88.44
2022-10-30T19:29:43.250Z,87.09
2022-10-30T19:32:10.083Z,86.39
2022-10-30T19:34:36.488Z,87.36
2022-10-30T19:37:02.839Z,87.54
2022-10-30T19:39:32.654Z,86.22
2022-10-30T19:41:59.011Z,85.85
2022-10-30T19:44:25.459Z,86.03
2022-10-30T19:46:51.844Z,86.50
2022-10-30T19:49:19.951Z,86.05
2022-10-30T19:51:47.125Z,86.54
2022-10-30T19:54:13.723Z,85.62
2022-10-30T19:56:42.609Z,85.53
2022-10-30T19:59:10.258Z,85.53
2022-10-30T20:01:36.903Z,86.46
2022-10-30T20:04:03.504Z,85.63
2022-10-30T20:06:29.914Z,86.51
2022-10-30T20:08:57.723Z,85.17
2022-10-30T20:11:24.207Z,85.26
2022-10-30T20:13:53.735Z,86.29
2022-10-30T20:16:21.121Z,85.38
2022-10-30T20:18:48.760Z,85.24
2022-10-30T20:21:15.236Z,85.48
2022-10-30T20:23:41.676Z,85.41
2022-10-30T20:26:24.130Z,85.14
2022-10-30T20:28:50.881Z,84.99
2022-10-30T20:31:17.211Z,85.40
2022-10-30T20:33:43.645Z,84.52
2022-10-30T20:36:13.216Z,85.24
2022-10-30T20:38:40.206Z,85.06
2022-10-30T20:41:18.331Z,84.52
2022-10-30T20:43:44.720Z,85.65
2022-10-30T20:46:11.474Z,85.75
2022-10-30T20:48:38.037Z,85.45
2022-10-30T20:51:04.941Z,84.50
2022-10-30T20:53:31.338Z,85.27
2022-10-30T20:55:57.941Z,83.76
2022-10-30T20:58:25.085Z,83.79
2022-10-30T21:00:54.987Z,85.26
2022-10-30T21:03:23.513Z,84.97
2022-10-30T21:05:56.606Z,84.64
2022-10-30T21:08:23.159Z,83.39
2022-10-30T21:10:49.547Z,84.44
2022-10-30T21:13:15.877Z,83.56
2022-10-30T21:15:44.347Z,83.66
2022-10-30T21:18:15.144Z,84.18
2022-10-30T21:20:41.516Z,84.56
2022-10-30T21:23:08.735Z,83.51
2022-10-30T21:25:35.833Z,83.14
2022-10-30T21:28:02.696Z,83.39
2022-10-30T21:30:29.277Z,83.08
2022-10-30T21:32:55.643Z,84.88
2022-10-30T21:35:22.006Z,83.92
2022-10-30T21:37:48.467Z,84.20
2022-10-30T21:40:14.929Z,84.02
2022-10-30T21:42:41.240Z,82.98
2022-10-30T21:45:08.918Z,84.41
2022-10-30T21:47:35.326Z,84.18
2022-10-30T21:50:04.824Z,82.87
2022-10-30T21:52:34.401Z,83.81
2022-10-30T21:55:00.739Z,84.60
2022-10-30T21:57:28.732Z,82.95
2022-10-30T21:59:55.082Z,83.41
2022-10-30T22:02:21.784Z,84.49
2022-10-30T22:04:48.155Z,82.73
2022-10-30T22:07:17.611Z,84.16
2022-10-30T22:09:44.033Z,83.50
2022-10-30T22:12:10.381Z,83.58
2022-10-30T22:14:36.752Z,82.47
2022-10-30T22:17:03.211Z,83.32
2022-10-30T22:19:29.570Z,84.69
2022-10-30T22:21:55.962Z,84.32
2022-10-30T22:24:22.267Z,83.31
2022-10-30T22:26:48.600Z,82.67
2022-10-30T22:29:15.104Z,83.28
2022-10-30T22:31:41.444Z,82.66
2022-10-30T22:34:07.864Z,84.05
2022-10-30T22:36:34.313Z,84.45
2022-10-30T22:39:05.635Z,83.48
2022-10-30T22:41:36.452Z,83.16
2022-10-30T22:44:07.674Z,82.73
2022-10-30T22:46:34.726Z,83.85
2022-10-30T22:49:01.118Z,83.63
2022-10-30T22:51:27.635Z,82.94
2022-10-30T22:53:56.881Z,82.63
2022-10-30T22:56:25.861Z,83.55
2022-10-30T22:58:53.105Z,82.59
2022-10-30T23:01:25.453Z,83.25
2022-10-30T23:03:56.503Z,83.77
2022-10-30T23:06:23.329Z,83.22
2022-10-30T23:08:51.659Z,84.24
2022-10-30T23:11:18.139Z,83.97
2022-10-30T23:13:45.357Z,82.83
2022-10-30T23:16:15.984Z,83.26
2022-10-30T23:18:43.749Z,83.58
2022-10-30T23:21:21.557Z,83.70
2022-10-30T23:23:48.779Z,83.56
2022-10-30T23:26:18.035Z,82.50
2022-10-30T23:28:45.432Z,82.47
2022-10-30T23:31:30.675Z,83.76
2022-10-30T23:34:00.284Z,82.52
2022-10-30T23:36:26.793Z,83.12
2022-10-30T23:38:58.370Z,82.82
2022-10-30T23:41:26.747Z,83.35
2022-10-30T23:43:58.020Z,82.00
2022-10-30T23:46:24.370Z,81.93
2022-10-30T23:48:51.158Z,82.93
2022-10-30T23:51:19.841Z,83.17
2022-10-30T23:53:46.411Z,83.32
2022-10-30T23:56:13.338Z,82.68
2022-10-30T23:58:43.537Z,82.54
